Flight Track Log - Related Links

Times and Time Zones

All times are in EDT time to prevent confusion due to time zone crossing. See the DAL2473 flight status page for this flight to view local times or setup timezone preferences in your user account.

Time Position Orientation Groundspeed Altitude Reporting Facility
EDT Latitude Longitude Course Direction KTS MPH feet Rate Location/Type
Tue 11:28:58 AM 33.6472 -84.4831 277° West 462 532 2,800  Level Atlanta Center
Tue 11:29:58 AM 33.6636 -84.5606 284° West 320 368 5,300 2,803 Climbing Atlanta Center
Tue 11:31:00 AM 33.6574 -84.8548 273° West  Level Estimated
Tue 11:31:00 AM 33.6833 -84.6500 285° West 271 312 8,500  Level Atlanta TRACON
Tue 11:32:00 AM 33.6481 -84.9969 266° West  Level FlightAware Approximate
Tue 11:32:58 AM 33.6917 -84.8253 273° West 295 339 12,800  Level Atlanta Center
Tue 11:33:00 AM 33.6386 -85.1390 265° West  Level FlightAware Approximate
Tue 11:33:58 AM 33.6783 -84.9325 262° West 305 351 14,300  Level Atlanta Center
Tue 11:34:00 AM 33.6450 -85.2813 277° West  Level Estimated
Tue 11:34:58 AM 33.6692 -85.0447 264° West 340 391 17,400  Level Atlanta Center
Tue 11:35:58 AM 33.6578 -85.1494 263° West 333 383 19,100 1,400 Climbing Atlanta Center
Tue 11:36:58 AM 33.6483 -85.2717 265° West 348 400 20,200 1,150 Climbing Atlanta Center
Tue 11:37:58 AM 33.6531 -85.4089 272° West 367 422 21,400 1,250 Climbing Atlanta Center
Tue 11:38:58 AM 33.6558 -85.5386 272° West 380 437 22,700 950 Climbing Atlanta Center
Tue 11:39:58 AM 33.6583 -85.6661 271° West 390 449 23,300 1,100 Climbing Atlanta Center
Tue 11:40:58 AM 33.6606 -85.7958 271° West 390 449 24,900 1,400 Climbing Atlanta Center
Tue 11:41:58 AM 33.6611 -85.9058 270° West 382 440 26,100 1,200 Climbing Atlanta Center
Tue 11:42:58 AM 33.6592 -86.0353 269° West 382 440 27,300 950 Climbing Atlanta Center
Tue 11:43:58 AM 33.6611 -86.1603 271° West 382 440 28,000 350 Climbing Atlanta Center
Tue 11:44:58 AM 33.6611 -86.2875 270° West 382 440 28,000  Level Atlanta Center
Tue 11:45:58 AM 33.6650 -86.4150 272° West 382 440 28,000 500 Level Atlanta Center
Tue 11:46:58 AM 33.6667 -86.5397 271° West 382 440 29,000 1,050 Climbing Atlanta Center
Tue 11:47:58 AM 33.6683 -86.6622 271° West 382 440 30,100 500 Climbing Atlanta Center
Tue 11:48:58 AM 33.6678 -86.7844 270° West 382 440 30,000 -50 Descending Atlanta Center
Tue 11:49:58 AM 33.6692 -86.9067 271° West 376 433 30,000  Level Atlanta Center
Tue 11:50:58 AM 33.6619 -87.0239 266° West 366 421 30,000  Level Atlanta Center
Tue 11:51:55 AM 33.6567 -87.1492 267° West 365 420 30,000  Level Memphis Center
Tue 11:52:57 AM 33.6494 -87.2719 266° West 367 422 30,000  Level Memphis Center
Tue 11:53:59 AM 33.6439 -87.3964 267° West 369 425 30,000  Level Memphis Center
Tue 11:55:01 AM 33.6361 -87.5225 266° West 373 429 30,000  Level Memphis Center
Tue 11:56:03 AM 33.6311 -87.6497 267° West 376 433 30,000  Level Memphis Center
Tue 11:57:04 AM 33.6236 -87.8006 267° West 376 433 30,000  Level Memphis Center
Tue 11:58:06 AM 33.6164 -87.9283 266° West 378 435 30,000  Level Memphis Center
Tue 11:59:08 AM 33.6097 -88.0569 266° West 380 437 30,000  Level Memphis Center
Tue 12:00:11 PM 33.6033 -88.1853 267° West 382 440 30,000  Level Memphis Center
Tue 12:01:12 PM 33.5947 -88.3122 265° West 382 440 30,000  Level Memphis Center
Tue 12:02:14 PM 33.5872 -88.4406 266° West 382 440 30,000  Level Memphis Center
Tue 12:03:16 PM 33.5800 -88.5664 266° West 382 440 30,000  Level Memphis Center
Tue 12:04:18 PM 33.5711 -88.7164 266° West 381 438 30,000  Level Memphis Center
Tue 12:05:20 PM 33.5617 -88.8467 265° West 380 437 30,000  Level Memphis Center
Tue 12:06:21 PM 33.5542 -88.9747 266° West 381 438 30,000  Level Memphis Center
Tue 12:07:23 PM 33.5458 -89.1022 266° West 383 441 30,000  Level Memphis Center
Tue 12:08:25 PM 33.5372 -89.2322 265° West 391 450 30,000  Level Memphis Center
Tue 12:09:27 PM 33.5283 -89.3617 265° West 391 450 30,000  Level Memphis Center
Tue 12:10:28 PM 33.5197 -89.4911 265° West 391 450 30,000  Level Memphis Center
Tue 12:11:30 PM 33.5092 -89.6481 265° West 393 452 30,000  Level Memphis Center
Tue 12:12:32 PM 33.5003 -89.7797 265° West 396 456 30,000  Level Memphis Center
Tue 12:13:33 PM 33.4903 -89.9117 265° West 399 459 30,000  Level Memphis Center
Tue 12:14:35 PM 33.4811 -90.0433 265° West 400 460 30,000  Level Memphis Center
Tue 12:15:37 PM 33.4714 -90.1769 265° West 403 464 30,000  Level Memphis Center
Tue 12:16:38 PM 33.4642 -90.3369 267° West 404 465 30,000  Level Memphis Center
Tue 12:17:40 PM 33.4697 -90.4711 273° West 408 470 30,000  Level Memphis Center
Tue 12:18:42 PM 33.4742 -90.6053 272° West 406 467 30,000  Level Memphis Center
Tue 12:19:44 PM 33.4767 -90.7417 271° West 410 472 30,000  Level Memphis Center
Tue 12:20:45 PM 33.4792 -90.8772 271° West 410 472 30,000  Level Memphis Center
Tue 12:21:47 PM 33.4825 -91.0147 272° West 410 472 30,000  Level Memphis Center
Tue 12:22:49 PM 33.4867 -91.1800 272° West 412 474 30,000  Level Memphis Center
Tue 12:23:50 PM 33.4892 -91.3189 271° West 417 480 30,000  Level Memphis Center
Tue 12:24:52 PM 33.4917 -91.4553 271° West 417 480 30,000  Level Memphis Center
Tue 12:25:54 PM 33.4939 -91.5917 271° West 416 479 30,000  Level Memphis Center
Tue 12:26:55 PM 33.4972 -91.7325 272° West 416 479 30,000  Level Memphis Center
Tue 12:27:57 PM 33.5000 -91.8703 271° West 415 478 30,000  Level Memphis Center
Tue 12:28:59 PM 33.5011 -92.0106 271° West 417 480 30,000  Level Memphis Center
Tue 12:30:00 PM 33.5036 -92.1506 271° West 417 480 30,000  Level Memphis Center
Tue 12:31:02 PM 33.5042 -92.3164 270° West 418 481 30,000  Level Memphis Center
Tue 12:32:04 PM 33.4947 -92.4558 265° West 418 481 30,000  Level Memphis Center
Tue 12:33:05 PM 33.4875 -92.5953 266° West 418 481 30,000  Level Memphis Center
Tue 12:34:07 PM 33.4792 -92.7342 266° West 418 481 30,000  Level Memphis Center
Tue 12:35:09 PM 33.4706 -92.8719 266° West 418 481 30,000  Level Memphis Center
Tue 12:36:11 PM 33.4633 -93.0119 266° West 419 482 30,000  Level Memphis Center
Tue 12:37:13 PM 33.4539 -93.1506 265° West 418 481 30,000  Level Memphis Center
Tue 12:38:14 PM 33.4442 -93.3178 266° West 419 482 30,000  Level Memphis Center
Tue 12:39:44 PM 33.4325 -93.5128 266° West 421 484 30,000  Level Fort Worth Center
Tue 12:40:46 PM 33.4239 -93.6492 266° West 420 483 30,000  Level Fort Worth Center
Tue 12:41:48 PM 33.4153 -93.7847 266° West 413 475 30,000  Level Fort Worth Center
Tue 12:42:50 PM 33.4042 -93.9447 265° West 415 478 30,000  Level Fort Worth Center
Tue 12:43:52 PM 33.3947 -94.0769 265° West 414 476 30,000  Level Fort Worth Center
Tue 12:44:54 PM 33.3850 -94.2131 265° West 415 478 30,000  Level Fort Worth Center
Tue 12:45:56 PM 33.3733 -94.3769 265° West 415 478 30,000  Level Fort Worth Center
Tue 12:46:59 PM 33.3636 -94.5117 265° West 411 473 30,000  Level Fort Worth Center
Tue 12:48:01 PM 33.3539 -94.6481 265° West 413 475 30,000  Level Fort Worth Center
Tue 12:49:03 PM 33.3436 -94.7856 265° West 414 476 30,000  Level Fort Worth Center
Tue 12:50:05 PM 33.3333 -94.9228 265° West 415 478 30,000  Level Fort Worth Center
Tue 12:51:07 PM 33.3192 -95.0850 264° West 413 475 30,000  Level Fort Worth Center
Tue 12:52:09 PM 33.3078 -95.2225 264° West 414 476 30,000  Level Fort Worth Center
Tue 12:53:11 PM 33.2975 -95.3600 265° West 416 479 30,000  Level Fort Worth Center
Tue 12:54:13 PM 33.2864 -95.4967 264° West 415 478 30,000  Level Fort Worth Center
Tue 12:55:16 PM 33.2767 -95.6497 266° West 417 480 30,000  Level Fort Worth Center
Tue 12:56:18 PM 33.2647 -95.7864 264° West 417 480 30,000  Level Fort Worth Center
Tue 12:57:20 PM 33.2550 -95.9236 265° West 413 475 30,000  Level Fort Worth Center
Tue 12:58:22 PM 33.2417 -96.0606 263° West 413 475 30,000  Level Fort Worth Center
Tue 12:59:24 PM 33.2306 -96.1978 265° West 416 479 30,000  Level Fort Worth Center
Tue 01:00:26 PM 33.2125 -96.3631 263° West 418 481 30,000  Level Fort Worth Center
Tue 01:01:28 PM 33.1992 -96.5008 263° West 418 481 30,000  Level Fort Worth Center
Tue 01:02:30 PM 33.1875 -96.6389 264° West 419 482 30,000  Level Fort Worth Center
Tue 01:03:32 PM 33.1778 -96.7767 265° West 419 482 30,000  Level Fort Worth Center
Tue 01:04:34 PM 33.1664 -96.9136 264° West 418 481 30,000  Level Fort Worth Center
Tue 01:05:37 PM 33.1514 -97.0758 264° West 417 480 30,000  Level Fort Worth Center
Tue 01:06:39 PM 33.1389 -97.2114 264° West 419 482 30,000  Level Fort Worth Center
Tue 01:07:41 PM 33.1281 -97.3456 265° West 418 481 30,000  Level Fort Worth Center
Tue 01:08:43 PM 33.1150 -97.4825 264° West 420 483 30,000  Level Fort Worth Center
Tue 01:09:45 PM 33.0994 -97.6464 264° West 419 482 30,000  Level Fort Worth Center
Tue 01:10:47 PM 33.0861 -97.7822 263° West 418 481 30,000  Level Fort Worth Center
Tue 01:11:49 PM 33.0719 -97.9203 263° West 418 481 30,000  Level Fort Worth Center
Tue 01:12:51 PM 33.0592 -98.0561 264° West 417 480 30,000 336 Level Fort Worth Center
Tue 01:13:54 PM 33.0442 -98.1939 263° West 417 480 30,700 960 Climbing Fort Worth Center
Tue 01:14:56 PM 33.0269 -98.3575 263° West 417 480 32,000 629 Climbing Fort Worth Center
Tue 01:15:58 PM 33.0156 -98.4756 263° West 419 482 32,000  Level Fort Worth Center
Tue 01:17:00 PM 32.9981 -98.6386 263° West 416 479 32,000  Level Fort Worth Center
Tue 01:18:02 PM 32.9828 -98.7758 262° West 417 480 32,000  Level Fort Worth Center
Tue 01:19:04 PM 32.9683 -98.9133 263° West 417 480 32,000  Level Fort Worth Center
Tue 01:20:06 PM 32.9539 -99.0492 263° West 417 480 32,000  Level Fort Worth Center
Tue 01:21:08 PM 32.9392 -99.1858 263° West 416 479 32,000  Level Fort Worth Center
Tue 01:22:11 PM 32.9236 -99.3233 262° West 418 481 32,000  Level Fort Worth Center
Tue 01:23:13 PM 32.9058 -99.4864 263° West 418 481 32,000  Level Fort Worth Center
Tue 01:24:15 PM 32.8900 -99.6217 262° West 417 480 32,000  Level Fort Worth Center
Tue 01:25:17 PM 32.8750 -99.7564 262° West 416 479 32,000  Level Fort Worth Center
Tue 01:26:19 PM 32.8606 -99.8900 263° West 415 478 32,000  Level Fort Worth Center
Tue 01:27:21 PM 32.8417 -100.0500 262° West 414 476 32,000  Level Fort Worth Center
Tue 01:28:23 PM 32.8258 -100.1836 262° West 414 476 32,000  Level Fort Worth Center
Tue 01:29:25 PM 32.8100 -100.3189 262° West 414 476 32,000  Level Fort Worth Center
Tue 01:30:27 PM 32.7944 -100.4539 262° West 414 476 32,000  Level Fort Worth Center
Tue 01:31:30 PM 32.7767 -100.5886 261° West 414 476 32,000  Level Fort Worth Center
Tue 01:32:32 PM 32.7575 -100.7519 262° West 416 479 32,000  Level Fort Worth Center
Tue 01:33:34 PM 32.7417 -100.8886 262° West 416 479 32,000  Level Fort Worth Center
Tue 01:34:36 PM 32.7250 -101.0228 262° West 415 478 32,000  Level Fort Worth Center
Tue 01:35:38 PM 32.7075 -101.1578 261° West 416 479 32,000  Level Fort Worth Center
Tue 01:36:40 PM 32.6881 -101.3019 261° West 414 476 32,000  Level Fort Worth Center
Tue 01:37:42 PM 32.6706 -101.4358 261° West 414 476 32,000  Level Fort Worth Center
Tue 01:38:44 PM 32.6533 -101.5708 261° West 414 476 32,000  Level Fort Worth Center
Tue 01:40:49 PM 32.6142 -101.8681 261° West 414 476 32,000  Level Fort Worth Center
Tue 01:41:51 PM 32.5969 -102.0044 262° West 415 478 32,000  Level Fort Worth Center
Tue 01:42:53 PM 32.5783 -102.1400 261° West 416 479 32,000  Level Fort Worth Center
Tue 01:43:55 PM 32.5578 -102.2925 261° West 419 482 32,000  Level Fort Worth Center
Tue 01:44:57 PM 32.5406 -102.4283 261° West 419 482 32,000  Level Fort Worth Center
Tue 01:45:59 PM 32.5206 -102.5653 260° West 420 483 32,000  Level Fort Worth Center
Tue 01:47:01 PM 32.5019 -102.6989 261° West 420 483 32,000  Level Fort Worth Center
Tue 01:49:05 PM 32.4633 -102.9706 261° West 420 483 32,000  Level Fort Worth Center
Tue 01:50:08 PM 32.4400 -103.1356 261° West 420 483 32,000  Level Fort Worth Center
Tue 01:51:10 PM 32.4203 -103.2708 260° West 420 483 32,000  Level Fort Worth Center
Tue 01:52:12 PM 32.4017 -103.4067 261° West 420 483 32,000  Level Fort Worth Center
Tue 01:53:14 PM 32.3833 -103.5431 261° West 420 483 32,000  Level Fort Worth Center
Tue 01:54:13 PM 32.3644 -103.6789 261° West 420 483 32,000  Level Albuquerque Center
Tue 01:55:14 PM 32.3464 -103.8153 261° West 420 483 32,000  Level Albuquerque Center
Tue 01:56:18 PM 32.3250 -103.9500 259° West 420 483 32,000  Level Albuquerque Center
Tue 01:57:19 PM 32.3033 -104.0958 260° West 420 483 32,000  Level Albuquerque Center
Tue 01:58:21 PM 32.2831 -104.2311 260° West 420 483 32,000  Level Albuquerque Center
Tue 01:59:23 PM 32.2622 -104.3650 260° West 417 480 32,000  Level Albuquerque Center
Tue 02:00:23 PM 32.2408 -104.5000 259° West 418 481 32,000  Level Albuquerque Center
Tue 02:01:27 PM 32.2144 -104.6600 259° West 418 481 32,000  Level Albuquerque Center
Tue 02:02:28 PM 32.1933 -104.7928 259° West 417 480 32,000  Level Albuquerque Center
Tue 02:03:29 PM 32.1714 -104.9269 259° West 417 480 32,000  Level Albuquerque Center
Tue 02:04:32 PM 32.1508 -105.0611 260° West 417 480 32,000  Level Albuquerque Center
Tue 02:05:34 PM 32.1286 -105.1947 259° West 417 480 32,000  Level Albuquerque Center
Tue 02:06:37 PM 32.1033 -105.3575 260° West 420 483 32,000  Level Albuquerque Center
Tue 02:07:39 PM 32.0817 -105.4903 259° West 418 481 32,000  Level Albuquerque Center
Tue 02:08:39 PM 32.0589 -105.6283 259° West 417 480 32,000  Level Albuquerque Center
Tue 02:09:43 PM 32.0392 -105.7567 260° West 417 480 32,000  Level Albuquerque Center
Tue 02:10:44 PM 32.0169 -105.8897 259° West 417 480 32,000  Level Albuquerque Center
Tue 02:11:44 PM 31.9908 -106.0478 259° West 417 480 32,000  Level Albuquerque Center
Tue 02:12:46 PM 31.9686 -106.1814 259° West 418 481 32,000  Level Albuquerque Center
Tue 02:13:49 PM 31.9575 -106.3153 264° West 418 481 32,000  Level Albuquerque Center
Tue 02:14:51 PM 31.9675 -106.4494 275° West 414 476 32,000  Level Albuquerque Center
Tue 02:15:52 PM 31.9772 -106.5836 275° West 413 475 32,000  Level Albuquerque Center
Tue 02:16:55 PM 31.9875 -106.7169 275° West 411 473 32,000  Level Albuquerque Center
Tue 02:17:55 PM 31.9978 -106.8508 275° West 411 473 32,000  Level Albuquerque Center
Tue 02:18:58 PM 32.0072 -106.9867 275° West 411 473 32,000  Level Albuquerque Center
Tue 02:19:58 PM 32.0175 -107.1481 274° West 411 473 32,000  Level Albuquerque Center
Tue 02:21:02 PM 32.0256 -107.2817 274° West 411 473 32,000  Level Albuquerque Center
Tue 02:22:02 PM 32.0347 -107.4161 275° West 411 473 32,000  Level Albuquerque Center
Tue 02:23:06 PM 32.0433 -107.5503 274° West 411 473 32,000  Level Albuquerque Center
Tue 02:24:06 PM 32.0508 -107.6836 274° West 410 472 32,000  Level Albuquerque Center
Tue 02:25:07 PM 32.0592 -107.8175 274° West 410 472 32,000  Level Albuquerque Center
Tue 02:26:10 PM 32.0664 -107.9519 274° West 410 472 32,000  Level Albuquerque Center
Tue 02:27:11 PM 32.0750 -108.0844 274° West 410 472 32,000  Level Albuquerque Center
Tue 02:28:15 PM 32.0856 -108.2442 275° West 409 471 32,000  Level Albuquerque Center
Tue 02:29:15 PM 32.0933 -108.3778 274° West 409 471 32,000  Level Albuquerque Center
Tue 02:30:16 PM 32.1014 -108.5186 274° West 409 471 32,000  Level Albuquerque Center
Tue 02:31:20 PM 32.1097 -108.6519 274° West 409 471 32,000  Level Albuquerque Center
Tue 02:32:21 PM 32.1161 -108.7853 273° West 409 471 32,000  Level Albuquerque Center
Tue 02:33:21 PM 32.1225 -108.9203 273° West 409 471 32,000  Level Albuquerque Center
Tue 02:34:25 PM 32.1278 -109.0547 273° West 409 471 32,000 -528 Level Albuquerque Center
Tue 02:35:26 PM 32.1347 -109.1889 274° West 409 471 30,900 -1,525 Descending Albuquerque Center
Tue 02:36:27 PM 32.1439 -109.3256 275° West 411 473 28,900 -1,869 Descending Albuquerque Center
Tue 02:37:28 PM 32.1631 -109.4625 279° West 417 480 27,100 -2,177 Descending Albuquerque Center
Tue 02:38:31 PM 32.1822 -109.6286 278° West 422 486 24,400 -2,400 Descending Albuquerque Center
Tue 02:39:33 PM 32.1992 -109.7625 279° West 419 482 22,100 -1,967 Descending Albuquerque Center
Tue 02:40:33 PM 32.2058 -109.8942 273° West 408 470 20,400 -1,854 Descending Albuquerque Center
Tue 02:41:36 PM 32.1883 -110.0394 262° West 403 464 18,300 -1,920 Descending Albuquerque Center
Tue 02:41:48 PM 32.1875 -110.0572 267° West 402 463 18,000 -1,574 Descending Albuquerque Center
Tue 02:42:37 PM 32.1817 -110.1522 266° West 400 460 16,700 -1,791 Descending Albuquerque Center
Tue 02:42:55 PM 32.1781 -110.2011 265° West 382 440 16,000 -1,714 Descending Albuquerque Center
Tue 02:43:40 PM 32.1867 -110.2731 278° West 379 436 14,900 -2,273 Descending Albuquerque Center
Tue 02:44:01 PM 32.1894 -110.3317 273° West 373 429 13,500 -2,754 Descending Albuquerque Center
Tue 02:44:41 PM 32.2003 -110.3967 281° West 371 427 12,100 -2,066 Descending Albuquerque Center
Tue 02:45:02 PM 32.2061 -110.4583 276° West 364 419 11,400 -1,048 Descending Albuquerque Center
Tue 02:45:44 PM 32.2125 -110.5114 278° West 357 411 11,000 -421 Descending Albuquerque Center
Tue 02:45:59 PM 32.2153 -110.5464 275° West 327 376 11,000  Level Albuquerque Center
Tue 02:46:45 PM 32.2253 -110.6067 281° West 309 356 11,000 -537 Level Albuquerque Center
Tue 02:47:06 PM 32.2300 -110.6533 277° West 291 335 10,400 -300 Descending Albuquerque Center
Tue 02:47:45 PM 32.2397 -110.7169 280° West 298 343 10,700 -2,000 Climbing Albuquerque Center
Tue 02:48:06 PM 32.2394 -110.7442 269° West 284 327 8,400 -3,143 Descending Albuquerque Center
Tue 02:48:48 PM 32.2492 -110.7850 286° West 261 300 7,400 -1,400 Descending Albuquerque Center
Tue 02:49:06 PM 32.2528 -110.8339 275° West 282 325 7,000 -393 Descending Albuquerque Center
Tue 02:49:49 PM 32.2628 -110.8969 281° West 277 319 7,000 -581 Level Albuquerque Center
Tue 02:50:08 PM 32.2547 -110.9317 255° West 274 315 6,400 -1,500 Descending Albuquerque Center
Tue 02:50:53 PM 32.2414 -110.9781 251° West 270 311 5,400 -1,029 Descending Albuquerque Center
Tue 02:51:53 PM 32.1894 -111.0122 209° Southwest 250 288 4,600 -1,200 Descending Albuquerque Center
Tue 02:52:03 PM 32.1731 -111.0067 164° South 193 222 4,000 -375 Descending Albuquerque Center
Tue 02:52:57 PM 32.1247 -111.0150 188° South 230 265 4,200 222 Climbing Albuquerque Center

Login

Don't have an account? Register now (free) for customized features, flight alerts, and more!